sensor_id;sensor_type;location;lat;lon;timestamp;P1;durP1;ratioP1;P2;durP2;ratioP2
58685;SDS011;44465;53.206;-6.106;2022-12-13T00:04:09;43.92;;;22.30;;
58685;SDS011;44465;53.206;-6.106;2022-12-13T00:06:35;48.05;;;21.63;;
58685;SDS011;44465;53.206;-6.106;2022-12-13T00:09:02;43.97;;;21.15;;
58685;SDS011;44465;53.206;-6.106;2022-12-13T00:11:29;39.55;;;21.70;;
58685;SDS011;44465;53.206;-6.106;2022-12-13T00:13:54;39.03;;;20.52;;
58685;SDS011;44465;53.206;-6.106;2022-12-13T00:16:21;35.85;;;18.65;;
58685;SDS011;44465;53.206;-6.106;2022-12-13T00:18:49;35.15;;;19.38;;
58685;SDS011;44465;53.206;-6.106;2022-12-13T00:21:18;36.60;;;19.05;;
58685;SDS011;44465;53.206;-6.106;2022-12-13T00:23:45;35.30;;;18.38;;
58685;SDS011;44465;53.206;-6.106;2022-12-13T00:26:12;33.97;;;17.83;;
58685;SDS011;44465;53.206;-6.106;2022-12-13T00:28:40;31.98;;;16.80;;
58685;SDS011;44465;53.206;-6.106;2022-12-13T00:31:06;34.38;;;18.08;;
58685;SDS011;44465;53.206;-6.106;2022-12-13T00:33:32;35.90;;;16.77;;
58685;SDS011;44465;53.206;-6.106;2022-12-13T00:36:01;27.20;;;15.95;;
58685;SDS011;44465;53.206;-6.106;2022-12-13T00:38:30;27.38;;;15.40;;
58685;SDS011;44465;53.206;-6.106;2022-12-13T00:40:56;29.92;;;15.25;;
58685;SDS011;44465;53.206;-6.106;2022-12-13T00:43:22;32.83;;;16.30;;
58685;SDS011;44465;53.206;-6.106;2022-12-13T00:45:48;28.90;;;14.60;;
58685;SDS011;44465;53.206;-6.106;2022-12-13T00:48:13;26.02;;;14.68;;
58685;SDS011;44465;53.206;-6.106;2022-12-13T00:50:39;23.13;;;13.80;;
58685;SDS011;44465;53.206;-6.106;2022-12-13T00:53:05;25.52;;;13.07;;
58685;SDS011;44465;53.206;-6.106;2022-12-13T00:55:31;25.52;;;13.50;;
58685;SDS011;44465;53.206;-6.106;2022-12-13T00:57:56;21.85;;;12.98;;
58685;SDS011;44465;53.206;-6.106;2022-12-13T01:00:22;22.23;;;13.18;;
58685;SDS011;44465;53.206;-6.106;2022-12-13T01:02:49;23.52;;;13.15;;
58685;SDS011;44465;53.206;-6.106;2022-12-13T01:05:17;22.00;;;12.23;;
58685;SDS011;44465;53.206;-6.106;2022-12-13T01:07:43;18.90;;;11.05;;
58685;SDS011;44465;53.206;-6.106;2022-12-13T01:10:09;22.33;;;12.57;;
58685;SDS011;44465;53.206;-6.106;2022-12-13T01:12:36;20.60;;;12.73;;
58685;SDS011;44465;53.206;-6.106;2022-12-13T01:15:02;18.42;;;11.00;;
58685;SDS011;44465;53.206;-6.106;2022-12-13T01:17:27;20.30;;;11.40;;
58685;SDS011;44465;53.206;-6.106;2022-12-13T01:19:54;19.77;;;10.52;;
58685;SDS011;44465;53.206;-6.106;2022-12-13T01:22:20;18.42;;;10.70;;
58685;SDS011;44465;53.206;-6.106;2022-12-13T01:24:46;18.85;;;11.02;;
58685;SDS011;44465;53.206;-6.106;2022-12-13T01:27:12;16.52;;;10.65;;
58685;SDS011;44465;53.206;-6.106;2022-12-13T01:29:37;18.45;;;9.98;;
58685;SDS011;44465;53.206;-6.106;2022-12-13T01:32:03;19.13;;;9.68;;
58685;SDS011;44465;53.206;-6.106;2022-12-13T01:34:29;16.77;;;10.23;;
58685;SDS011;44465;53.206;-6.106;2022-12-13T01:36:54;15.98;;;8.43;;
58685;SDS011;44465;53.206;-6.106;2022-12-13T01:39:20;16.67;;;8.63;;
58685;SDS011;44465;53.206;-6.106;2022-12-13T01:41:50;16.05;;;8.88;;
58685;SDS011;44465;53.206;-6.106;2022-12-13T01:47:17;17.80;;;9.02;;
58685;SDS011;44465;53.206;-6.106;2022-12-13T01:49:48;14.90;;;7.65;;
58685;SDS011;44465;53.206;-6.106;2022-12-13T01:52:15;16.70;;;8.10;;
58685;SDS011;44465;53.206;-6.106;2022-12-13T01:57:10;13.27;;;6.90;;
58685;SDS011;44465;53.206;-6.106;2022-12-13T01:59:40;14.98;;;7.60;;
58685;SDS011;44465;53.206;-6.106;2022-12-13T02:02:06;14.20;;;7.25;;
58685;SDS011;44465;53.206;-6.106;2022-12-13T02:07:23;14.47;;;7.27;;
58685;SDS011;44465;53.206;-6.106;2022-12-13T02:09:54;11.20;;;6.50;;
58685;SDS011;44465;53.206;-6.106;2022-12-13T02:12:23;11.68;;;7.32;;
58685;SDS011;44465;53.206;-6.106;2022-12-13T02:14:50;8.75;;;6.28;;
58685;SDS011;44465;53.206;-6.106;2022-12-13T02:20:25;12.52;;;6.65;;
58685;SDS011;44465;53.206;-6.106;2022-12-13T02:26:02;9.98;;;5.70;;
58685;SDS011;44465;53.206;-6.106;2022-12-13T02:31:16;10.32;;;5.68;;
58685;SDS011;44465;53.206;-6.106;2022-12-13T02:36:31;11.10;;;5.53;;
58685;SDS011;44465;53.206;-6.106;2022-12-13T02:39:13;7.32;;;5.20;;
58685;SDS011;44465;53.206;-6.106;2022-12-13T02:41:49;9.25;;;5.30;;
58685;SDS011;44465;53.206;-6.106;2022-12-13T02:47:18;8.90;;;5.03;;
58685;SDS011;44465;53.206;-6.106;2022-12-13T02:49:47;8.60;;;4.82;;
58685;SDS011;44465;53.206;-6.106;2022-12-13T02:52:17;7.15;;;4.45;;
58685;SDS011;44465;53.206;-6.106;2022-12-13T02:54:45;7.13;;;4.70;;
58685;SDS011;44465;53.206;-6.106;2022-12-13T02:57:35;8.87;;;4.90;;
58685;SDS011;44465;53.206;-6.106;2022-12-13T03:00:21;8.07;;;4.60;;
58685;SDS011;44465;53.206;-6.106;2022-12-13T03:03:06;8.07;;;4.40;;
58685;SDS011;44465;53.206;-6.106;2022-12-13T03:05:47;8.48;;;4.57;;
58685;SDS011;44465;53.206;-6.106;2022-12-13T03:11:43;6.25;;;3.75;;
58685;SDS011;44465;53.206;-6.106;2022-12-13T03:14:30;6.20;;;4.03;;
58685;SDS011;44465;53.206;-6.106;2022-12-13T03:17:00;7.38;;;4.03;;
58685;SDS011;44465;53.206;-6.106;2022-12-13T03:19:29;8.98;;;4.32;;
58685;SDS011;44465;53.206;-6.106;2022-12-13T03:21:55;5.78;;;3.72;;
58685;SDS011;44465;53.206;-6.106;2022-12-13T03:24:21;7.60;;;3.70;;
58685;SDS011;44465;53.206;-6.106;2022-12-13T03:26:47;7.68;;;4.13;;
58685;SDS011;44465;53.206;-6.106;2022-12-13T03:29:14;6.57;;;3.83;;
58685;SDS011;44465;53.206;-6.106;2022-12-13T03:31:41;5.73;;;3.53;;
58685;SDS011;44465;53.206;-6.106;2022-12-13T03:34:06;6.97;;;3.47;;
58685;SDS011;44465;53.206;-6.106;2022-12-13T03:36:32;5.60;;;3.67;;
58685;SDS011;44465;53.206;-6.106;2022-12-13T03:38:58;4.50;;;3.60;;
58685;SDS011;44465;53.206;-6.106;2022-12-13T03:41:24;5.80;;;3.72;;
58685;SDS011;44465;53.206;-6.106;2022-12-13T03:43:56;5.07;;;3.25;;
58685;SDS011;44465;53.206;-6.106;2022-12-13T03:46:27;4.63;;;3.25;;
58685;SDS011;44465;53.206;-6.106;2022-12-13T03:48:52;4.97;;;3.33;;
58685;SDS011;44465;53.206;-6.106;2022-12-13T03:51:19;4.35;;;3.03;;
58685;SDS011;44465;53.206;-6.106;2022-12-13T03:53:45;3.10;;;2.70;;
58685;SDS011;44465;53.206;-6.106;2022-12-13T03:56:11;4.07;;;3.00;;
58685;SDS011;44465;53.206;-6.106;2022-12-13T03:58:36;4.18;;;2.70;;
58685;SDS011;44465;53.206;-6.106;2022-12-13T04:01:09;3.67;;;2.90;;
58685;SDS011;44465;53.206;-6.106;2022-12-13T04:03:40;4.10;;;3.17;;
58685;SDS011;44465;53.206;-6.106;2022-12-13T04:06:08;5.45;;;3.03;;
58685;SDS011;44465;53.206;-6.106;2022-12-13T04:08:35;4.63;;;3.10;;
58685;SDS011;44465;53.206;-6.106;2022-12-13T04:11:02;4.82;;;3.08;;
58685;SDS011;44465;53.206;-6.106;2022-12-13T04:13:49;3.42;;;2.72;;
58685;SDS011;44465;53.206;-6.106;2022-12-13T04:16:15;4.28;;;2.85;;
58685;SDS011;44465;53.206;-6.106;2022-12-13T04:18:40;3.50;;;2.90;;
58685;SDS011;44465;53.206;-6.106;2022-12-13T04:21:06;3.58;;;2.50;;
58685;SDS011;44465;53.206;-6.106;2022-12-13T04:23:31;4.45;;;3.08;;
58685;SDS011;44465;53.206;-6.106;2022-12-13T04:25:57;4.00;;;2.55;;
58685;SDS011;44465;53.206;-6.106;2022-12-13T04:28:23;3.08;;;2.30;;
58685;SDS011;44465;53.206;-6.106;2022-12-13T04:30:49;2.58;;;2.30;;
58685;SDS011;44465;53.206;-6.106;2022-12-13T04:33:15;2.75;;;2.38;;
58685;SDS011;44465;53.206;-6.106;2022-12-13T04:35:40;3.58;;;2.53;;
58685;SDS011;44465;53.206;-6.106;2022-12-13T04:38:06;3.72;;;2.67;;
58685;SDS011;44465;53.206;-6.106;2022-12-13T04:40:31;2.83;;;2.40;;
58685;SDS011;44465;53.206;-6.106;2022-12-13T04:42:57;2.67;;;2.40;;
58685;SDS011;44465;53.206;-6.106;2022-12-13T04:45:23;3.33;;;2.35;;
58685;SDS011;44465;53.206;-6.106;2022-12-13T04:47:48;5.43;;;2.70;;
58685;SDS011;44465;53.206;-6.106;2022-12-13T04:50:14;4.32;;;2.13;;
58685;SDS011;44465;53.206;-6.106;2022-12-13T04:52:40;2.22;;;1.80;;
58685;SDS011;44465;53.206;-6.106;2022-12-13T04:55:05;3.55;;;2.38;;
58685;SDS011;44465;53.206;-6.106;2022-12-13T04:57:33;2.78;;;2.17;;
58685;SDS011;44465;53.206;-6.106;2022-12-13T04:59:59;3.78;;;2.28;;
58685;SDS011;44465;53.206;-6.106;2022-12-13T05:02:24;3.70;;;2.30;;
58685;SDS011;44465;53.206;-6.106;2022-12-13T05:04:50;2.30;;;2.05;;
58685;SDS011;44465;53.206;-6.106;2022-12-13T05:07:16;3.90;;;2.72;;
58685;SDS011;44465;53.206;-6.106;2022-12-13T05:09:41;2.38;;;2.08;;
58685;SDS011;44465;53.206;-6.106;2022-12-13T05:12:07;2.35;;;1.95;;
58685;SDS011;44465;53.206;-6.106;2022-12-13T05:14:33;2.70;;;1.90;;
58685;SDS011;44465;53.206;-6.106;2022-12-13T05:16:58;3.13;;;2.20;;
58685;SDS011;44465;53.206;-6.106;2022-12-13T05:19:25;2.72;;;1.92;;
58685;SDS011;44465;53.206;-6.106;2022-12-13T05:21:51;2.47;;;2.10;;
58685;SDS011;44465;53.206;-6.106;2022-12-13T05:24:17;2.55;;;1.95;;
58685;SDS011;44465;53.206;-6.106;2022-12-13T05:26:42;2.15;;;1.73;;
58685;SDS011;44465;53.206;-6.106;2022-12-13T05:29:09;2.35;;;1.70;;
58685;SDS011;44465;53.206;-6.106;2022-12-13T05:34:32;2.08;;;1.80;;
58685;SDS011;44465;53.206;-6.106;2022-12-13T05:36:57;1.90;;;1.70;;
58685;SDS011;44465;53.206;-6.106;2022-12-13T05:39:23;2.85;;;1.90;;
58685;SDS011;44465;53.206;-6.106;2022-12-13T05:41:48;2.35;;;1.70;;
58685;SDS011;44465;53.206;-6.106;2022-12-13T05:44:14;2.72;;;1.75;;
58685;SDS011;44465;53.206;-6.106;2022-12-13T05:46:40;2.55;;;1.73;;
58685;SDS011;44465;53.206;-6.106;2022-12-13T05:49:05;2.85;;;1.80;;
58685;SDS011;44465;53.206;-6.106;2022-12-13T05:51:31;2.50;;;1.60;;
58685;SDS011;44465;53.206;-6.106;2022-12-13T05:53:57;2.08;;;1.63;;
58685;SDS011;44465;53.206;-6.106;2022-12-13T05:56:22;2.22;;;1.55;;
58685;SDS011;44465;53.206;-6.106;2022-12-13T05:58:48;1.73;;;1.60;;
58685;SDS011;44465;53.206;-6.106;2022-12-13T06:01:14;1.90;;;1.70;;
58685;SDS011;44465;53.206;-6.106;2022-12-13T06:03:41;2.20;;;1.90;;
58685;SDS011;44465;53.206;-6.106;2022-12-13T06:06:08;2.92;;;1.95;;
58685;SDS011;44465;53.206;-6.106;2022-12-13T06:08:34;2.03;;;1.92;;
58685;SDS011;44465;53.206;-6.106;2022-12-13T06:11:01;2.25;;;1.70;;
58685;SDS011;44465;53.206;-6.106;2022-12-13T06:13:27;1.83;;;1.73;;
58685;SDS011;44465;53.206;-6.106;2022-12-13T06:15:53;2.75;;;1.80;;
58685;SDS011;44465;53.206;-6.106;2022-12-13T06:18:25;1.92;;;1.55;;
58685;SDS011;44465;53.206;-6.106;2022-12-13T06:20:56;2.22;;;1.63;;
58685;SDS011;44465;53.206;-6.106;2022-12-13T06:23:23;3.03;;;1.70;;
58685;SDS011;44465;53.206;-6.106;2022-12-13T06:25:48;2.08;;;1.80;;
58685;SDS011;44465;53.206;-6.106;2022-12-13T06:28:14;1.95;;;1.75;;
58685;SDS011;44465;53.206;-6.106;2022-12-13T06:30:40;2.00;;;1.48;;
58685;SDS011;44465;53.206;-6.106;2022-12-13T06:33:05;1.63;;;1.40;;
58685;SDS011;44465;53.206;-6.106;2022-12-13T06:35:31;1.80;;;1.48;;
58685;SDS011;44465;53.206;-6.106;2022-12-13T06:37:56;1.52;;;1.33;;
58685;SDS011;44465;53.206;-6.106;2022-12-13T06:40:23;1.35;;;1.25;;
58685;SDS011;44465;53.206;-6.106;2022-12-13T06:42:48;3.97;;;1.80;;
58685;SDS011;44465;53.206;-6.106;2022-12-13T06:45:14;1.63;;;1.48;;
58685;SDS011;44465;53.206;-6.106;2022-12-13T06:47:41;1.58;;;1.48;;
58685;SDS011;44465;53.206;-6.106;2022-12-13T06:50:06;1.65;;;1.40;;
58685;SDS011;44465;53.206;-6.106;2022-12-13T06:52:33;2.07;;;1.57;;
58685;SDS011;44465;53.206;-6.106;2022-12-13T06:55:00;1.48;;;1.30;;
58685;SDS011;44465;53.206;-6.106;2022-12-13T06:57:25;1.88;;;1.63;;
58685;SDS011;44465;53.206;-6.106;2022-12-13T06:59:52;1.92;;;1.60;;
58685;SDS011;44465;53.206;-6.106;2022-12-13T07:02:17;1.50;;;1.40;;
58685;SDS011;44465;53.206;-6.106;2022-12-13T07:04:43;2.17;;;1.45;;
58685;SDS011;44465;53.206;-6.106;2022-12-13T07:07:08;1.77;;;1.55;;
58685;SDS011;44465;53.206;-6.106;2022-12-13T07:09:34;2.47;;;1.27;;
58685;SDS011;44465;53.206;-6.106;2022-12-13T07:12:00;1.42;;;1.30;;
58685;SDS011;44465;53.206;-6.106;2022-12-13T07:14:26;1.30;;;1.20;;
58685;SDS011;44465;53.206;-6.106;2022-12-13T07:16:52;1.52;;;1.42;;
58685;SDS011;44465;53.206;-6.106;2022-12-13T07:19:17;2.42;;;1.45;;
58685;SDS011;44465;53.206;-6.106;2022-12-13T07:21:43;1.65;;;1.27;;
58685;SDS011;44465;53.206;-6.106;2022-12-13T07:24:08;1.80;;;1.38;;
58685;SDS011;44465;53.206;-6.106;2022-12-13T07:26:34;1.67;;;1.58;;
58685;SDS011;44465;53.206;-6.106;2022-12-13T07:29:02;1.70;;;1.23;;
58685;SDS011;44465;53.206;-6.106;2022-12-13T07:31:28;1.70;;;1.60;;
58685;SDS011;44465;53.206;-6.106;2022-12-13T07:33:55;1.73;;;1.53;;
58685;SDS011;44465;53.206;-6.106;2022-12-13T07:36:21;1.92;;;1.35;;
58685;SDS011;44465;53.206;-6.106;2022-12-13T07:38:51;2.78;;;1.52;;
58685;SDS011;44465;53.206;-6.106;2022-12-13T07:41:18;1.92;;;1.60;;
58685;SDS011;44465;53.206;-6.106;2022-12-13T07:43:44;5.50;;;1.83;;
58685;SDS011;44465;53.206;-6.106;2022-12-13T07:46:10;1.60;;;1.35;;
58685;SDS011;44465;53.206;-6.106;2022-12-13T07:48:35;2.15;;;1.30;;
58685;SDS011;44465;53.206;-6.106;2022-12-13T07:51:03;1.90;;;1.40;;
58685;SDS011;44465;53.206;-6.106;2022-12-13T07:53:31;3.20;;;1.85;;
58685;SDS011;44465;53.206;-6.106;2022-12-13T07:55:59;2.50;;;1.50;;
58685;SDS011;44465;53.206;-6.106;2022-12-13T07:58:27;3.67;;;1.70;;
58685;SDS011;44465;53.206;-6.106;2022-12-13T08:00:58;2.10;;;1.58;;
58685;SDS011;44465;53.206;-6.106;2022-12-13T08:03:32;1.67;;;1.38;;
58685;SDS011;44465;53.206;-6.106;2022-12-13T08:08:31;7.63;;;1.98;;
58685;SDS011;44465;53.206;-6.106;2022-12-13T08:11:01;3.40;;;1.60;;
58685;SDS011;44465;53.206;-6.106;2022-12-13T08:13:28;3.05;;;1.60;;
58685;SDS011;44465;53.206;-6.106;2022-12-13T08:15:57;3.65;;;1.55;;
58685;SDS011;44465;53.206;-6.106;2022-12-13T08:18:25;1.73;;;1.45;;
58685;SDS011;44465;53.206;-6.106;2022-12-13T08:20:50;3.83;;;1.60;;
58685;SDS011;44465;53.206;-6.106;2022-12-13T08:23:29;2.58;;;1.52;;
58685;SDS011;44465;53.206;-6.106;2022-12-13T08:25:56;4.78;;;1.40;;
58685;SDS011;44465;53.206;-6.106;2022-12-13T08:28:22;3.58;;;1.70;;
58685;SDS011;44465;53.206;-6.106;2022-12-13T08:30:49;2.90;;;1.52;;
58685;SDS011;44465;53.206;-6.106;2022-12-13T08:33:15;2.80;;;1.70;;
58685;SDS011;44465;53.206;-6.106;2022-12-13T08:35:41;3.72;;;1.65;;
58685;SDS011;44465;53.206;-6.106;2022-12-13T08:38:07;2.38;;;1.50;;
58685;SDS011;44465;53.206;-6.106;2022-12-13T08:40:32;2.40;;;1.45;;
58685;SDS011;44465;53.206;-6.106;2022-12-13T08:42:59;2.83;;;2.10;;
58685;SDS011;44465;53.206;-6.106;2022-12-13T08:45:24;2.05;;;1.35;;
58685;SDS011;44465;53.206;-6.106;2022-12-13T08:47:51;3.40;;;1.63;;
58685;SDS011;44465;53.206;-6.106;2022-12-13T08:50:17;1.83;;;1.45;;
58685;SDS011;44465;53.206;-6.106;2022-12-13T08:52:46;2.28;;;1.60;;
58685;SDS011;44465;53.206;-6.106;2022-12-13T08:55:12;4.10;;;1.48;;
58685;SDS011;44465;53.206;-6.106;2022-12-13T08:57:39;3.95;;;1.42;;
58685;SDS011;44465;53.206;-6.106;2022-12-13T09:00:06;1.65;;;1.55;;
58685;SDS011;44465;53.206;-6.106;2022-12-13T09:02:35;2.28;;;1.30;;
58685;SDS011;44465;53.206;-6.106;2022-12-13T09:05:00;2.25;;;1.83;;
58685;SDS011;44465;53.206;-6.106;2022-12-13T09:07:27;2.78;;;1.40;;
58685;SDS011;44465;53.206;-6.106;2022-12-13T09:09:53;1.90;;;1.50;;
58685;SDS011;44465;53.206;-6.106;2022-12-13T09:12:18;3.45;;;1.60;;
58685;SDS011;44465;53.206;-6.106;2022-12-13T09:14:44;2.03;;;1.25;;
58685;SDS011;44465;53.206;-6.106;2022-12-13T09:17:10;1.70;;;1.40;;
58685;SDS011;44465;53.206;-6.106;2022-12-13T09:19:36;1.70;;;1.48;;
58685;SDS011;44465;53.206;-6.106;2022-12-13T09:22:02;1.80;;;1.55;;
58685;SDS011;44465;53.206;-6.106;2022-12-13T09:24:27;2.22;;;1.67;;
58685;SDS011;44465;53.206;-6.106;2022-12-13T09:26:53;1.55;;;1.40;;
58685;SDS011;44465;53.206;-6.106;2022-12-13T09:29:18;2.35;;;1.65;;
58685;SDS011;44465;53.206;-6.106;2022-12-13T09:31:44;1.45;;;1.35;;
58685;SDS011;44465;53.206;-6.106;2022-12-13T09:34:10;1.45;;;1.35;;
58685;SDS011;44465;53.206;-6.106;2022-12-13T09:36:36;1.52;;;1.42;;
58685;SDS011;44465;53.206;-6.106;2022-12-13T09:39:03;1.67;;;1.45;;
58685;SDS011;44465;53.206;-6.106;2022-12-13T09:41:31;3.53;;;1.40;;
58685;SDS011;44465;53.206;-6.106;2022-12-13T09:44:15;2.90;;;1.60;;
58685;SDS011;44465;53.206;-6.106;2022-12-13T09:46:52;2.92;;;1.63;;
58685;SDS011;44465;53.206;-6.106;2022-12-13T09:51:49;1.58;;;1.48;;
58685;SDS011;44465;53.206;-6.106;2022-12-13T09:54:19;3.63;;;1.20;;
58685;SDS011;44465;53.206;-6.106;2022-12-13T09:56:48;4.30;;;1.48;;
58685;SDS011;44465;53.206;-6.106;2022-12-13T09:59:17;2.00;;;1.40;;
58685;SDS011;44465;53.206;-6.106;2022-12-13T10:02:02;1.70;;;1.33;;
58685;SDS011;44465;53.206;-6.106;2022-12-13T10:04:53;1.48;;;1.30;;
58685;SDS011;44465;53.206;-6.106;2022-12-13T10:07:23;2.17;;;1.63;;
58685;SDS011;44465;53.206;-6.106;2022-12-13T10:09:51;2.47;;;1.60;;
58685;SDS011;44465;53.206;-6.106;2022-12-13T10:12:25;1.27;;;1.17;;
58685;SDS011;44465;53.206;-6.106;2022-12-13T10:14:53;2.25;;;1.35;;
58685;SDS011;44465;53.206;-6.106;2022-12-13T10:17:23;2.33;;;1.30;;
58685;SDS011;44465;53.206;-6.106;2022-12-13T10:19:51;2.42;;;1.63;;
58685;SDS011;44465;53.206;-6.106;2022-12-13T10:22:19;2.35;;;1.50;;
58685;SDS011;44465;53.206;-6.106;2022-12-13T10:27:20;1.77;;;1.50;;
58685;SDS011;44465;53.206;-6.106;2022-12-13T10:29:59;2.47;;;1.40;;
58685;SDS011;44465;53.206;-6.106;2022-12-13T10:32:29;3.80;;;1.40;;
58685;SDS011;44465;53.206;-6.106;2022-12-13T10:34:58;1.25;;;1.15;;
58685;SDS011;44465;53.206;-6.106;2022-12-13T10:37:30;4.18;;;1.70;;
58685;SDS011;44465;53.206;-6.106;2022-12-13T10:39:57;3.17;;;1.45;;
58685;SDS011;44465;53.206;-6.106;2022-12-13T10:42:24;2.35;;;1.77;;
58685;SDS011;44465;53.206;-6.106;2022-12-13T10:47:40;1.80;;;1.60;;
58685;SDS011;44465;53.206;-6.106;2022-12-13T10:53:57;2.75;;;1.63;;
58685;SDS011;44465;53.206;-6.106;2022-12-13T10:56:37;2.05;;;1.38;;
58685;SDS011;44465;53.206;-6.106;2022-12-13T11:01:57;1.65;;;1.42;;
58685;SDS011;44465;53.206;-6.106;2022-12-13T11:04:25;1.95;;;1.40;;
58685;SDS011;44465;53.206;-6.106;2022-12-13T11:06:59;3.15;;;1.75;;
58685;SDS011;44465;53.206;-6.106;2022-12-13T11:09:45;2.55;;;1.63;;
58685;SDS011;44465;53.206;-6.106;2022-12-13T11:12:12;1.40;;;1.30;;
58685;SDS011;44465;53.206;-6.106;2022-12-13T11:15:03;1.58;;;1.40;;
58685;SDS011;44465;53.206;-6.106;2022-12-13T11:17:31;1.80;;;1.63;;
58685;SDS011;44465;53.206;-6.106;2022-12-13T11:20:16;1.90;;;1.40;;
58685;SDS011;44465;53.206;-6.106;2022-12-13T11:22:46;2.83;;;1.45;;
58685;SDS011;44465;53.206;-6.106;2022-12-13T11:25:18;6.43;;;1.88;;
58685;SDS011;44465;53.206;-6.106;2022-12-13T11:28:03;3.75;;;1.90;;
58685;SDS011;44465;53.206;-6.106;2022-12-13T11:39:28;6.55;;;1.60;;
58685;SDS011;44465;53.206;-6.106;2022-12-13T11:42:03;4.70;;;1.83;;
58685;SDS011;44465;53.206;-6.106;2022-12-13T11:44:58;6.38;;;2.10;;
58685;SDS011;44465;53.206;-6.106;2022-12-13T11:47:34;4.65;;;2.00;;
58685;SDS011;44465;53.206;-6.106;2022-12-13T11:50:05;7.57;;;2.22;;
58685;SDS011;44465;53.206;-6.106;2022-12-13T11:52:39;7.80;;;2.30;;
58685;SDS011;44465;53.206;-6.106;2022-12-13T11:55:26;4.70;;;1.83;;
58685;SDS011;44465;53.206;-6.106;2022-12-13T12:00:48;9.05;;;1.90;;
58685;SDS011;44465;53.206;-6.106;2022-12-13T12:03:55;7.95;;;1.80;;
58685;SDS011;44465;53.206;-6.106;2022-12-13T12:06:17;5.93;;;1.85;;
58685;SDS011;44465;53.206;-6.106;2022-12-13T12:08:50;7.88;;;1.88;;
58685;SDS011;44465;53.206;-6.106;2022-12-13T12:11:40;10.38;;;1.90;;
58685;SDS011;44465;53.206;-6.106;2022-12-13T12:19:42;7.75;;;1.85;;
58685;SDS011;44465;53.206;-6.106;2022-12-13T12:30:20;7.88;;;2.00;;
58685;SDS011;44465;53.206;-6.106;2022-12-13T12:43:32;2.58;;;1.30;;
58685;SDS011;44465;53.206;-6.106;2022-12-13T13:00:21;1.80;;;1.40;;
58685;SDS011;44465;53.206;-6.106;2022-12-13T13:11:24;8.60;;;2.25;;
58685;SDS011;44465;53.206;-6.106;2022-12-13T13:18:54;4.80;;;1.80;;
58685;SDS011;44465;53.206;-6.106;2022-12-13T13:23:47;5.35;;;1.50;;
58685;SDS011;44465;53.206;-6.106;2022-12-13T13:26:38;8.95;;;1.55;;
58685;SDS011;44465;53.206;-6.106;2022-12-13T13:34:49;3.25;;;1.58;;
58685;SDS011;44465;53.206;-6.106;2022-12-13T13:39:54;4.32;;;1.77;;
58685;SDS011;44465;53.206;-6.106;2022-12-13T13:48:29;6.00;;;1.50;;
58685;SDS011;44465;53.206;-6.106;2022-12-13T14:10:35;1.83;;;1.33;;
58685;SDS011;44465;53.206;-6.106;2022-12-13T14:13:29;1.67;;;1.23;;
58685;SDS011;44465;53.206;-6.106;2022-12-13T14:19:23;10.18;;;1.80;;
58685;SDS011;44465;53.206;-6.106;2022-12-13T14:24:50;7.10;;;1.60;;
58685;SDS011;44465;53.206;-6.106;2022-12-13T14:30:04;6.60;;;2.00;;
58685;SDS011;44465;53.206;-6.106;2022-12-13T14:32:30;8.43;;;2.13;;
58685;SDS011;44465;53.206;-6.106;2022-12-13T14:35:02;10.98;;;1.92;;
58685;SDS011;44465;53.206;-6.106;2022-12-13T14:37:29;6.03;;;1.90;;
58685;SDS011;44465;53.206;-6.106;2022-12-13T14:44:51;18.15;;;2.28;;
58685;SDS011;44465;53.206;-6.106;2022-12-13T14:47:17;5.68;;;1.98;;
58685;SDS011;44465;53.206;-6.106;2022-12-13T14:49:45;7.20;;;2.40;;
58685;SDS011;44465;53.206;-6.106;2022-12-13T14:52:22;7.95;;;2.35;;
58685;SDS011;44465;53.206;-6.106;2022-12-13T14:57:20;8.70;;;2.88;;
58685;SDS011;44465;53.206;-6.106;2022-12-13T14:59:48;11.13;;;2.97;;
58685;SDS011;44465;53.206;-6.106;2022-12-13T15:02:23;20.25;;;3.30;;
58685;SDS011;44465;53.206;-6.106;2022-12-13T15:04:54;13.85;;;3.50;;
58685;SDS011;44465;53.206;-6.106;2022-12-13T15:09:58;8.02;;;2.80;;
58685;SDS011;44465;53.206;-6.106;2022-12-13T15:12:27;12.13;;;2.85;;
58685;SDS011;44465;53.206;-6.106;2022-12-13T15:14:58;7.93;;;2.95;;
58685;SDS011;44465;53.206;-6.106;2022-12-13T15:22:58;6.30;;;2.88;;
58685;SDS011;44465;53.206;-6.106;2022-12-13T15:25:32;9.63;;;2.85;;
58685;SDS011;44465;53.206;-6.106;2022-12-13T15:27:59;4.32;;;2.45;;
58685;SDS011;44465;53.206;-6.106;2022-12-13T15:30:25;5.22;;;2.03;;
58685;SDS011;44465;53.206;-6.106;2022-12-13T15:35:32;11.35;;;3.25;;
58685;SDS011;44465;53.206;-6.106;2022-12-13T15:38:01;12.10;;;3.38;;
58685;SDS011;44465;53.206;-6.106;2022-12-13T15:40:27;11.65;;;3.45;;
58685;SDS011;44465;53.206;-6.106;2022-12-13T15:42:53;8.40;;;2.90;;
58685;SDS011;44465;53.206;-6.106;2022-12-13T15:45:23;11.57;;;3.47;;
58685;SDS011;44465;53.206;-6.106;2022-12-13T15:47:50;16.10;;;3.10;;
58685;SDS011;44465;53.206;-6.106;2022-12-13T15:50:36;3.83;;;2.63;;
58685;SDS011;44465;53.206;-6.106;2022-12-13T15:53:05;6.18;;;2.67;;
58685;SDS011;44465;53.206;-6.106;2022-12-13T15:56:29;7.35;;;2.70;;
58685;SDS011;44465;53.206;-6.106;2022-12-13T15:58:55;7.95;;;2.17;;
58685;SDS011;44465;53.206;-6.106;2022-12-13T16:05:22;10.85;;;2.42;;
58685;SDS011;44465;53.206;-6.106;2022-12-13T16:07:57;8.77;;;2.38;;
58685;SDS011;44465;53.206;-6.106;2022-12-13T16:10:25;6.40;;;2.60;;
58685;SDS011;44465;53.206;-6.106;2022-12-13T16:12:56;5.05;;;2.10;;
58685;SDS011;44465;53.206;-6.106;2022-12-13T16:15:27;6.57;;;2.55;;
58685;SDS011;44465;53.206;-6.106;2022-12-13T16:18:05;8.70;;;2.50;;
58685;SDS011;44465;53.206;-6.106;2022-12-13T16:20:36;5.32;;;2.20;;
58685;SDS011;44465;53.206;-6.106;2022-12-13T16:23:01;10.00;;;2.70;;
58685;SDS011;44465;53.206;-6.106;2022-12-13T16:25:28;11.40;;;3.53;;
58685;SDS011;44465;53.206;-6.106;2022-12-13T16:27:54;6.85;;;2.53;;
58685;SDS011;44465;53.206;-6.106;2022-12-13T16:30:24;9.27;;;2.53;;
58685;SDS011;44465;53.206;-6.106;2022-12-13T16:32:51;5.85;;;2.00;;
58685;SDS011;44465;53.206;-6.106;2022-12-13T16:35:17;9.77;;;2.67;;
58685;SDS011;44465;53.206;-6.106;2022-12-13T16:37:43;15.98;;;3.20;;
58685;SDS011;44465;53.206;-6.106;2022-12-13T16:40:28;8.73;;;2.90;;
58685;SDS011;44465;53.206;-6.106;2022-12-13T16:42:55;6.68;;;2.13;;
58685;SDS011;44465;53.206;-6.106;2022-12-13T16:45:23;9.32;;;2.53;;
58685;SDS011;44465;53.206;-6.106;2022-12-13T16:47:49;10.25;;;2.40;;
58685;SDS011;44465;53.206;-6.106;2022-12-13T16:50:16;16.38;;;2.65;;
58685;SDS011;44465;53.206;-6.106;2022-12-13T16:52:44;16.77;;;3.03;;
58685;SDS011;44465;53.206;-6.106;2022-12-13T16:55:10;14.23;;;2.60;;
58685;SDS011;44465;53.206;-6.106;2022-12-13T16:57:36;13.00;;;2.72;;
58685;SDS011;44465;53.206;-6.106;2022-12-13T17:00:03;7.45;;;2.33;;
58685;SDS011;44465;53.206;-6.106;2022-12-13T17:02:30;11.80;;;2.47;;
58685;SDS011;44465;53.206;-6.106;2022-12-13T17:04:55;14.18;;;2.33;;
58685;SDS011;44465;53.206;-6.106;2022-12-13T17:07:20;11.05;;;2.20;;
58685;SDS011;44465;53.206;-6.106;2022-12-13T17:09:46;7.10;;;2.25;;
58685;SDS011;44465;53.206;-6.106;2022-12-13T17:12:13;8.13;;;3.07;;
58685;SDS011;44465;53.206;-6.106;2022-12-13T17:14:39;11.98;;;2.50;;
58685;SDS011;44465;53.206;-6.106;2022-12-13T17:17:05;8.65;;;2.15;;
58685;SDS011;44465;53.206;-6.106;2022-12-13T17:19:31;6.28;;;2.00;;
58685;SDS011;44465;53.206;-6.106;2022-12-13T17:21:56;13.02;;;2.80;;
58685;SDS011;44465;53.206;-6.106;2022-12-13T17:24:22;10.63;;;2.50;;
58685;SDS011;44465;53.206;-6.106;2022-12-13T17:26:48;6.32;;;2.00;;
58685;SDS011;44465;53.206;-6.106;2022-12-13T17:29:13;6.57;;;2.20;;
58685;SDS011;44465;53.206;-6.106;2022-12-13T17:31:39;6.55;;;1.88;;
58685;SDS011;44465;53.206;-6.106;2022-12-13T17:34:05;6.10;;;2.25;;
58685;SDS011;44465;53.206;-6.106;2022-12-13T17:36:30;7.50;;;2.55;;
58685;SDS011;44465;53.206;-6.106;2022-12-13T17:38:56;7.47;;;2.05;;
58685;SDS011;44465;53.206;-6.106;2022-12-13T17:41:22;4.07;;;1.77;;